sensor_id;sensor_type;location;lat;lon;timestamp;temperature;humidity
22426;DHT22;11380;50.822;15.790;2022-11-15T00:01:09;3.80;99.90
22426;DHT22;11380;50.822;15.790;2022-11-15T00:06:16;3.80;99.90
22426;DHT22;11380;50.822;15.790;2022-11-15T00:11:21;3.50;99.90
22426;DHT22;11380;50.822;15.790;2022-11-15T00:16:27;3.70;99.90
22426;DHT22;11380;50.822;15.790;2022-11-15T00:21:31;3.80;99.90
22426;DHT22;11380;50.822;15.790;2022-11-15T00:26:36;3.80;99.90
22426;DHT22;11380;50.822;15.790;2022-11-15T00:31:42;3.70;99.90
22426;DHT22;11380;50.822;15.790;2022-11-15T00:36:48;3.40;99.90
22426;DHT22;11380;50.822;15.790;2022-11-15T00:41:54;3.10;99.90
22426;DHT22;11380;50.822;15.790;2022-11-15T00:46:58;3.60;99.90
22426;DHT22;11380;50.822;15.790;2022-11-15T00:52:04;3.50;99.90
22426;DHT22;11380;50.822;15.790;2022-11-15T00:57:10;3.40;31.30
22426;DHT22;11380;50.822;15.790;2022-11-15T01:02:15;3.30;99.90
22426;DHT22;11380;50.822;15.790;2022-11-15T01:07:20;3.10;97.10
22426;DHT22;11380;50.822;15.790;2022-11-15T01:12:26;3.20;99.90
22426;DHT22;11380;50.822;15.790;2022-11-15T01:17:31;3.10;37.70
22426;DHT22;11380;50.822;15.790;2022-11-15T01:22:37;3.00;1.00
22426;DHT22;11380;50.822;15.790;2022-11-15T01:27:42;2.90;99.90
22426;DHT22;11380;50.822;15.790;2022-11-15T01:32:47;3.00;99.90
22426;DHT22;11380;50.822;15.790;2022-11-15T01:37:53;2.80;99.90
22426;DHT22;11380;50.822;15.790;2022-11-15T01:42:58;3.10;99.90
22426;DHT22;11380;50.822;15.790;2022-11-15T01:48:04;2.60;1.00
22426;DHT22;11380;50.822;15.790;2022-11-15T01:53:09;2.90;1.00
22426;DHT22;11380;50.822;15.790;2022-11-15T01:58:14;2.70;1.00
22426;DHT22;11380;50.822;15.790;2022-11-15T02:03:20;2.50;1.00
22426;DHT22;11380;50.822;15.790;2022-11-15T02:08:27;2.60;99.90
22426;DHT22;11380;50.822;15.790;2022-11-15T02:13:32;2.80;99.90
22426;DHT22;11380;50.822;15.790;2022-11-15T02:18:47;2.70;99.90
22426;DHT22;11380;50.822;15.790;2022-11-15T02:24:11;2.80;99.90
22426;DHT22;11380;50.822;15.790;2022-11-15T02:39:54;2.00;1.00
22426;DHT22;11380;50.822;15.790;2022-11-15T02:45:01;1.40;1.00
22426;DHT22;11380;50.822;15.790;2022-11-15T02:50:11;1.60;99.90
22426;DHT22;11380;50.822;15.790;2022-11-15T02:55:32;2.00;99.90
22426;DHT22;11380;50.822;15.790;2022-11-15T03:00:42;2.10;99.90
22426;DHT22;11380;50.822;15.790;2022-11-15T03:06:11;2.30;99.90
22426;DHT22;11380;50.822;15.790;2022-11-15T03:11:22;2.30;99.90
22426;DHT22;11380;50.822;15.790;2022-11-15T03:16:30;2.10;92.70
22426;DHT22;11380;50.822;15.790;2022-11-15T03:21:36;2.00;98.20
22426;DHT22;11380;50.822;15.790;2022-11-15T03:26:44;2.40;99.90
22426;DHT22;11380;50.822;15.790;2022-11-15T03:31:54;2.40;99.90
22426;DHT22;11380;50.822;15.790;2022-11-15T03:36:58;2.60;99.90
22426;DHT22;11380;50.822;15.790;2022-11-15T03:42:12;2.20;1.00
22426;DHT22;11380;50.822;15.790;2022-11-15T03:47:17;2.30;55.30
22426;DHT22;11380;50.822;15.790;2022-11-15T03:52:23;1.40;1.00
22426;DHT22;11380;50.822;15.790;2022-11-15T03:57:28;1.60;47.50
22426;DHT22;11380;50.822;15.790;2022-11-15T04:02:36;1.40;99.90
22426;DHT22;11380;50.822;15.790;2022-11-15T04:07:41;1.70;99.90
22426;DHT22;11380;50.822;15.790;2022-11-15T04:12:46;1.90;99.90
22426;DHT22;11380;50.822;15.790;2022-11-15T04:17:53;1.80;99.90
22426;DHT22;11380;50.822;15.790;2022-11-15T04:23:00;1.80;99.90
22426;DHT22;11380;50.822;15.790;2022-11-15T04:28:24;1.70;99.90
22426;DHT22;11380;50.822;15.790;2022-11-15T04:33:29;2.10;99.90
22426;DHT22;11380;50.822;15.790;2022-11-15T04:38:36;2.20;99.90
22426;DHT22;11380;50.822;15.790;2022-11-15T04:43:41;1.10;99.90
22426;DHT22;11380;50.822;15.790;2022-11-15T04:48:46;1.10;99.90
22426;DHT22;11380;50.822;15.790;2022-11-15T04:53:52;1.60;99.90
22426;DHT22;11380;50.822;15.790;2022-11-15T04:58:57;1.80;99.90
22426;DHT22;11380;50.822;15.790;2022-11-15T05:04:04;2.00;99.90
22426;DHT22;11380;50.822;15.790;2022-11-15T05:09:24;1.90;99.90
22426;DHT22;11380;50.822;15.790;2022-11-15T05:14:30;1.00;99.90
22426;DHT22;11380;50.822;15.790;2022-11-15T05:19:35;1.40;99.90
22426;DHT22;11380;50.822;15.790;2022-11-15T05:24:40;1.30;99.90
22426;DHT22;11380;50.822;15.790;2022-11-15T05:29:47;1.40;99.90
22426;DHT22;11380;50.822;15.790;2022-11-15T05:34:52;1.80;99.90
22426;DHT22;11380;50.822;15.790;2022-11-15T05:39:57;1.80;99.90
22426;DHT22;11380;50.822;15.790;2022-11-15T05:45:04;2.00;99.90
22426;DHT22;11380;50.822;15.790;2022-11-15T05:50:15;1.70;99.90
22426;DHT22;11380;50.822;15.790;2022-11-15T05:55:22;1.90;99.90
22426;DHT22;11380;50.822;15.790;2022-11-15T06:00:29;1.80;99.90
22426;DHT22;11380;50.822;15.790;2022-11-15T06:05:34;1.60;99.90
22426;DHT22;11380;50.822;15.790;2022-11-15T06:10:40;1.20;99.90
22426;DHT22;11380;50.822;15.790;2022-11-15T06:15:46;0.90;99.90
22426;DHT22;11380;50.822;15.790;2022-11-15T06:20:51;1.10;99.90
22426;DHT22;11380;50.822;15.790;2022-11-15T06:25:58;1.40;99.90
22426;DHT22;11380;50.822;15.790;2022-11-15T06:31:06;1.50;99.90
22426;DHT22;11380;50.822;15.790;2022-11-15T06:36:14;1.50;99.90
22426;DHT22;11380;50.822;15.790;2022-11-15T06:41:21;1.20;99.90
22426;DHT22;11380;50.822;15.790;2022-11-15T06:46:27;1.30;99.90
22426;DHT22;11380;50.822;15.790;2022-11-15T06:51:32;1.60;99.90
22426;DHT22;11380;50.822;15.790;2022-11-15T06:56:37;1.70;99.90
22426;DHT22;11380;50.822;15.790;2022-11-15T07:01:43;1.20;99.90
22426;DHT22;11380;50.822;15.790;2022-11-15T07:06:48;1.80;99.90
22426;DHT22;11380;50.822;15.790;2022-11-15T07:11:54;2.20;99.90
22426;DHT22;11380;50.822;15.790;2022-11-15T07:16:59;2.30;99.90
22426;DHT22;11380;50.822;15.790;2022-11-15T07:22:04;2.40;99.90
22426;DHT22;11380;50.822;15.790;2022-11-15T07:27:10;3.20;99.90
22426;DHT22;11380;50.822;15.790;2022-11-15T07:32:15;3.40;99.90
22426;DHT22;11380;50.822;15.790;2022-11-15T07:37:20;3.80;99.90
22426;DHT22;11380;50.822;15.790;2022-11-15T07:42:26;4.10;99.90
22426;DHT22;11380;50.822;15.790;2022-11-15T07:47:50;4.20;99.90
22426;DHT22;11380;50.822;15.790;2022-11-15T07:52:56;4.50;99.90
22426;DHT22;11380;50.822;15.790;2022-11-15T07:58:03;5.10;99.90
22426;DHT22;11380;50.822;15.790;2022-11-15T08:03:11;5.40;99.90
22426;DHT22;11380;50.822;15.790;2022-11-15T08:08:16;5.50;65.50
22426;DHT22;11380;50.822;15.790;2022-11-15T08:13:22;6.10;26.00
22426;DHT22;11380;50.822;15.790;2022-11-15T08:18:27;6.40;4.70
22426;DHT22;11380;50.822;15.790;2022-11-15T08:23:34;6.50;1.00
22426;DHT22;11380;50.822;15.790;2022-11-15T08:28:39;7.50;1.00
22426;DHT22;11380;50.822;15.790;2022-11-15T08:33:44;7.60;1.00
22426;DHT22;11380;50.822;15.790;2022-11-15T08:38:50;7.90;1.00
22426;DHT22;11380;50.822;15.790;2022-11-15T08:43:55;8.30;1.00
22426;DHT22;11380;50.822;15.790;2022-11-15T08:49:01;8.50;1.00
22426;DHT22;11380;50.822;15.790;2022-11-15T08:54:06;8.60;99.90
22426;DHT22;11380;50.822;15.790;2022-11-15T08:59:11;8.70;99.90
22426;DHT22;11380;50.822;15.790;2022-11-15T09:04:16;9.30;99.90
22426;DHT22;11380;50.822;15.790;2022-11-15T09:09:22;9.60;99.90
22426;DHT22;11380;50.822;15.790;2022-11-15T09:14:27;9.20;99.90
22426;DHT22;11380;50.822;15.790;2022-11-15T09:19:32;9.70;99.90
22426;DHT22;11380;50.822;15.790;2022-11-15T09:24:37;9.90;99.90
22426;DHT22;11380;50.822;15.790;2022-11-15T09:29:43;10.10;99.90
22426;DHT22;11380;50.822;15.790;2022-11-15T09:34:48;10.60;99.90
22426;DHT22;11380;50.822;15.790;2022-11-15T09:39:53;10.70;99.90
22426;DHT22;11380;50.822;15.790;2022-11-15T09:45:17;10.70;99.90
22426;DHT22;11380;50.822;15.790;2022-11-15T09:50:46;10.60;99.90
22426;DHT22;11380;50.822;15.790;2022-11-15T09:56:10;11.00;99.90
22426;DHT22;11380;50.822;15.790;2022-11-15T10:01:08;11.40;99.90
22426;DHT22;11380;50.822;15.790;2022-11-15T10:06:26;11.70;99.90
22426;DHT22;11380;50.822;15.790;2022-11-15T10:11:30;11.90;99.90
22426;DHT22;11380;50.822;15.790;2022-11-15T10:22:11;12.30;99.90
22426;DHT22;11380;50.822;15.790;2022-11-15T10:27:16;12.20;99.90
22426;DHT22;11380;50.822;15.790;2022-11-15T10:32:22;12.60;99.90
22426;DHT22;11380;50.822;15.790;2022-11-15T10:37:29;12.80;99.90
22426;DHT22;11380;50.822;15.790;2022-11-15T10:42:35;12.80;99.90
22426;DHT22;11380;50.822;15.790;2022-11-15T10:47:41;13.00;99.90
22426;DHT22;11380;50.822;15.790;2022-11-15T10:52:46;13.20;1.00
22426;DHT22;11380;50.822;15.790;2022-11-15T11:03:08;13.30;1.00
22426;DHT22;11380;50.822;15.790;2022-11-15T11:13:24;13.40;1.00
22426;DHT22;11380;50.822;15.790;2022-11-15T11:18:52;13.50;1.00
22426;DHT22;11380;50.822;15.790;2022-11-15T11:29:34;13.60;1.00
22426;DHT22;11380;50.822;15.790;2022-11-15T11:35:13;13.60;1.00
22426;DHT22;11380;50.822;15.790;2022-11-15T11:40:19;13.80;1.00
22426;DHT22;11380;50.822;15.790;2022-11-15T11:50:58;13.90;1.00
22426;DHT22;11380;50.822;15.790;2022-11-15T11:56:13;13.90;1.00
22426;DHT22;11380;50.822;15.790;2022-11-15T12:01:25;13.90;1.00
22426;DHT22;11380;50.822;15.790;2022-11-15T12:06:56;13.60;1.00
22426;DHT22;11380;50.822;15.790;2022-11-15T12:17:45;13.40;1.00
22426;DHT22;11380;50.822;15.790;2022-11-15T12:23:06;13.30;1.00
22426;DHT22;11380;50.822;15.790;2022-11-15T12:33:46;13.30;99.90
22426;DHT22;11380;50.822;15.790;2022-11-15T12:38:56;13.40;99.90
22426;DHT22;11380;50.822;15.790;2022-11-15T12:44:03;13.40;99.90
22426;DHT22;11380;50.822;15.790;2022-11-15T12:59:55;12.80;1.00
22426;DHT22;11380;50.822;15.790;2022-11-15T13:10:31;12.70;1.00
22426;DHT22;11380;50.822;15.790;2022-11-15T13:15:56;12.50;1.00
22426;DHT22;11380;50.822;15.790;2022-11-15T13:21:16;12.60;1.00
22426;DHT22;11380;50.822;15.790;2022-11-15T13:26:15;12.60;99.90
22426;DHT22;11380;50.822;15.790;2022-11-15T13:31:28;12.60;99.90
22426;DHT22;11380;50.822;15.790;2022-11-15T13:36:33;12.60;99.90
22426;DHT22;11380;50.822;15.790;2022-11-15T13:41:49;12.60;99.90
22426;DHT22;11380;50.822;15.790;2022-11-15T13:47:06;12.60;99.90
22426;DHT22;11380;50.822;15.790;2022-11-15T13:52:10;12.40;99.90
22426;DHT22;11380;50.822;15.790;2022-11-15T13:57:26;12.20;99.90
22426;DHT22;11380;50.822;15.790;2022-11-15T14:02:34;12.00;99.90
22426;DHT22;11380;50.822;15.790;2022-11-15T14:07:39;11.90;99.90
22426;DHT22;11380;50.822;15.790;2022-11-15T14:12:52;11.80;99.90
22426;DHT22;11380;50.822;15.790;2022-11-15T14:17:57;11.80;99.90
22426;DHT22;11380;50.822;15.790;2022-11-15T14:23:18;11.30;99.90
22426;DHT22;11380;50.822;15.790;2022-11-15T14:33:37;10.60;1.00
22426;DHT22;11380;50.822;15.790;2022-11-15T14:38:43;10.10;99.90
22426;DHT22;11380;50.822;15.790;2022-11-15T14:43:49;9.80;99.90
22426;DHT22;11380;50.822;15.790;2022-11-15T14:48:54;9.50;99.90
22426;DHT22;11380;50.822;15.790;2022-11-15T14:53:59;9.40;99.90
22426;DHT22;11380;50.822;15.790;2022-11-15T14:59:05;9.10;99.90
22426;DHT22;11380;50.822;15.790;2022-11-15T15:04:10;9.00;99.90
22426;DHT22;11380;50.822;15.790;2022-11-15T15:09:16;8.70;99.90
22426;DHT22;11380;50.822;15.790;2022-11-15T15:14:21;8.40;1.00
22426;DHT22;11380;50.822;15.790;2022-11-15T15:19:27;8.60;1.00
22426;DHT22;11380;50.822;15.790;2022-11-15T15:24:32;8.50;99.90
22426;DHT22;11380;50.822;15.790;2022-11-15T15:29:37;8.30;1.00
22426;DHT22;11380;50.822;15.790;2022-11-15T15:34:44;8.40;1.00
22426;DHT22;11380;50.822;15.790;2022-11-15T15:39:58;8.00;1.00
22426;DHT22;11380;50.822;15.790;2022-11-15T15:44:59;7.80;1.00
22426;DHT22;11380;50.822;15.790;2022-11-15T15:50:28;7.60;1.00
22426;DHT22;11380;50.822;15.790;2022-11-15T15:55:28;7.40;1.00
22426;DHT22;11380;50.822;15.790;2022-11-15T16:00:33;7.40;1.00
22426;DHT22;11380;50.822;15.790;2022-11-15T16:05:39;7.20;1.00
22426;DHT22;11380;50.822;15.790;2022-11-15T16:10:44;7.20;1.00
22426;DHT22;11380;50.822;15.790;2022-11-15T16:15:52;7.10;1.00
22426;DHT22;11380;50.822;15.790;2022-11-15T16:20:57;6.90;1.00
22426;DHT22;11380;50.822;15.790;2022-11-15T16:26:04;6.70;1.00
22426;DHT22;11380;50.822;15.790;2022-11-15T16:31:11;5.90;1.00
22426;DHT22;11380;50.822;15.790;2022-11-15T16:36:22;6.20;1.00
22426;DHT22;11380;50.822;15.790;2022-11-15T16:41:30;6.10;1.00
22426;DHT22;11380;50.822;15.790;2022-11-15T16:46:35;6.00;1.00
22426;DHT22;11380;50.822;15.790;2022-11-15T16:51:40;6.00;1.00
22426;DHT22;11380;50.822;15.790;2022-11-15T16:56:47;5.70;1.00
22426;DHT22;11380;50.822;15.790;2022-11-15T17:01:52;5.60;1.00
22426;DHT22;11380;50.822;15.790;2022-11-15T17:06:57;5.60;1.00
22426;DHT22;11380;50.822;15.790;2022-11-15T17:12:02;5.30;1.00
22426;DHT22;11380;50.822;15.790;2022-11-15T17:17:09;5.10;1.00
22426;DHT22;11380;50.822;15.790;2022-11-15T17:22:14;5.20;1.00
22426;DHT22;11380;50.822;15.790;2022-11-15T17:27:19;5.30;1.00
22426;DHT22;11380;50.822;15.790;2022-11-15T17:32:25;5.30;1.00
22426;DHT22;11380;50.822;15.790;2022-11-15T17:37:30;5.30;1.00
22426;DHT22;11380;50.822;15.790;2022-11-15T17:42:35;5.40;1.00
22426;DHT22;11380;50.822;15.790;2022-11-15T17:47:40;4.90;1.00
22426;DHT22;11380;50.822;15.790;2022-11-15T17:52:45;4.70;1.00
22426;DHT22;11380;50.822;15.790;2022-11-15T17:57:50;5.00;1.00
22426;DHT22;11380;50.822;15.790;2022-11-15T18:02:56;5.00;1.00
22426;DHT22;11380;50.822;15.790;2022-11-15T18:08:01;4.90;4.90
22426;DHT22;11380;50.822;15.790;2022-11-15T18:13:06;5.00;1.00
22426;DHT22;11380;50.822;15.790;2022-11-15T18:18:14;4.80;29.30
22426;DHT22;11380;50.822;15.790;2022-11-15T18:23:20;5.10;2.40
22426;DHT22;11380;50.822;15.790;2022-11-15T18:28:30;5.10;1.00
22426;DHT22;11380;50.822;15.790;2022-11-15T18:33:36;5.20;11.70
22426;DHT22;11380;50.822;15.790;2022-11-15T18:38:42;5.20;1.00
22426;DHT22;11380;50.822;15.790;2022-11-15T18:43:47;5.00;99.90
22426;DHT22;11380;50.822;15.790;2022-11-15T18:48:54;5.20;99.90
22426;DHT22;11380;50.822;15.790;2022-11-15T18:54:01;5.30;81.00
22426;DHT22;11380;50.822;15.790;2022-11-15T18:59:07;5.40;31.10
22426;DHT22;11380;50.822;15.790;2022-11-15T19:04:15;5.50;1.00
22426;DHT22;11380;50.822;15.790;2022-11-15T19:09:22;5.60;1.00
22426;DHT22;11380;50.822;15.790;2022-11-15T19:14:28;5.50;1.00
22426;DHT22;11380;50.822;15.790;2022-11-15T19:19:34;5.40;1.00
22426;DHT22;11380;50.822;15.790;2022-11-15T19:24:40;5.40;1.00
22426;DHT22;11380;50.822;15.790;2022-11-15T19:29:45;5.40;1.00
22426;DHT22;11380;50.822;15.790;2022-11-15T19:34:50;5.00;18.80
22426;DHT22;11380;50.822;15.790;2022-11-15T19:39:55;5.00;99.90
22426;DHT22;11380;50.822;15.790;2022-11-15T19:45:00;5.30;99.90
22426;DHT22;11380;50.822;15.790;2022-11-15T19:50:06;5.30;17.70
22426;DHT22;11380;50.822;15.790;2022-11-15T19:55:11;5.30;9.30
22426;DHT22;11380;50.822;15.790;2022-11-15T20:00:17;5.20;1.00
22426;DHT22;11380;50.822;15.790;2022-11-15T20:05:22;4.90;1.00
22426;DHT22;11380;50.822;15.790;2022-11-15T20:10:28;5.00;69.90
22426;DHT22;11380;50.822;15.790;2022-11-15T20:15:33;5.00;99.90
22426;DHT22;11380;50.822;15.790;2022-11-15T20:20:38;5.10;99.90
22426;DHT22;11380;50.822;15.790;2022-11-15T20:25:44;5.10;99.90
22426;DHT22;11380;50.822;15.790;2022-11-15T20:30:55;5.20;99.30
22426;DHT22;11380;50.822;15.790;2022-11-15T20:36:13;5.30;99.30
22426;DHT22;11380;50.822;15.790;2022-11-15T20:41:17;5.30;1.00
22426;DHT22;11380;50.822;15.790;2022-11-15T20:46:22;4.90;95.00
22426;DHT22;11380;50.822;15.790;2022-11-15T20:51:28;4.80;99.90
22426;DHT22;11380;50.822;15.790;2022-11-15T20:56:34;5.10;99.90
22426;DHT22;11380;50.822;15.790;2022-11-15T21:01:39;4.70;99.90
22426;DHT22;11380;50.822;15.790;2022-11-15T21:06:45;4.80;99.90
22426;DHT22;11380;50.822;15.790;2022-11-15T21:11:52;5.00;99.90
22426;DHT22;11380;50.822;15.790;2022-11-15T21:17:15;5.10;99.90
22426;DHT22;11380;50.822;15.790;2022-11-15T21:22:23;5.00;48.90
22426;DHT22;11380;50.822;15.790;2022-11-15T21:27:29;4.80;97.70
22426;DHT22;11380;50.822;15.790;2022-11-15T21:32:34;4.70;99.90
22426;DHT22;11380;50.822;15.790;2022-11-15T21:37:40;4.60;99.90
22426;DHT22;11380;50.822;15.790;2022-11-15T21:42:46;4.50;90.60
22426;DHT22;11380;50.822;15.790;2022-11-15T21:47:51;4.50;99.90
22426;DHT22;11380;50.822;15.790;2022-11-15T21:52:55;4.60;99.90
22426;DHT22;11380;50.822;15.790;2022-11-15T21:58:00;4.80;99.90
22426;DHT22;11380;50.822;15.790;2022-11-15T22:03:06;4.50;37.80
22426;DHT22;11380;50.822;15.790;2022-11-15T22:08:11;4.50;29.00
22426;DHT22;11380;50.822;15.790;2022-11-15T22:13:18;4.40;3.80
22426;DHT22;11380;50.822;15.790;2022-11-15T22:18:24;4.50;24.60
22426;DHT22;11380;50.822;15.790;2022-11-15T22:23:31;4.40;60.20
22426;DHT22;11380;50.822;15.790;2022-11-15T22:28:36;4.60;1.00
22426;DHT22;11380;50.822;15.790;2022-11-15T22:33:42;4.50;1.00
22426;DHT22;11380;50.822;15.790;2022-11-15T22:38:47;4.40;2.50
22426;DHT22;11380;50.822;15.790;2022-11-15T22:43:52;4.40;14.70
22426;DHT22;11380;50.822;15.790;2022-11-15T22:48:58;4.40;20.70
22426;DHT22;11380;50.822;15.790;2022-11-15T22:54:05;4.10;1.00
22426;DHT22;11380;50.822;15.790;2022-11-15T22:59:10;4.00;1.00
22426;DHT22;11380;50.822;15.790;2022-11-15T23:04:16;4.10;1.00
22426;DHT22;11380;50.822;15.790;2022-11-15T23:09:21;3.90;1.00
22426;DHT22;11380;50.822;15.790;2022-11-15T23:14:27;3.90;1.00
22426;DHT22;11380;50.822;15.790;2022-11-15T23:19:32;3.80;35.80
22426;DHT22;11380;50.822;15.790;2022-11-15T23:24:37;3.90;42.70
22426;DHT22;11380;50.822;15.790;2022-11-15T23:29:43;3.80;4.70
22426;DHT22;11380;50.822;15.790;2022-11-15T23:35:06;3.90;4.30
22426;DHT22;11380;50.822;15.790;2022-11-15T23:40:12;3.50;5.40
22426;DHT22;11380;50.822;15.790;2022-11-15T23:45:17;3.30;99.90
22426;DHT22;11380;50.822;15.790;2022-11-15T23:50:23;3.60;99.90
22426;DHT22;11380;50.822;15.790;2022-11-15T23:55:28;3.80;99.90
